sensor_id;sensor_type;location;lat;lon;timestamp;P1;durP1;ratioP1;P2;durP2;ratioP2
1987;SDS011;12775;46.994;15.498;2023-03-23T00:00:44;10.56;;;7.98;;
1987;SDS011;12775;46.994;15.498;2023-03-23T00:03:12;9.74;;;8.74;;
1987;SDS011;12775;46.994;15.498;2023-03-23T00:05:39;13.34;;;9.30;;
1987;SDS011;12775;46.994;15.498;2023-03-23T00:08:07;11.58;;;10.32;;
1987;SDS011;12775;46.994;15.498;2023-03-23T00:10:35;9.48;;;8.50;;
1987;SDS011;12775;46.994;15.498;2023-03-23T00:13:02;9.30;;;8.40;;
1987;SDS011;12775;46.994;15.498;2023-03-23T00:15:30;8.02;;;7.20;;
1987;SDS011;12775;46.994;15.498;2023-03-23T00:17:57;10.32;;;8.10;;
1987;SDS011;12775;46.994;15.498;2023-03-23T00:20:24;9.44;;;8.50;;
1987;SDS011;12775;46.994;15.498;2023-03-23T00:22:52;9.60;;;8.80;;
1987;SDS011;12775;46.994;15.498;2023-03-23T00:25:19;10.18;;;8.98;;
1987;SDS011;12775;46.994;15.498;2023-03-23T00:27:47;9.78;;;8.76;;
1987;SDS011;12775;46.994;15.498;2023-03-23T00:30:14;9.16;;;8.24;;
1987;SDS011;12775;46.994;15.498;2023-03-23T00:32:41;10.96;;;9.58;;
1987;SDS011;12775;46.994;15.498;2023-03-23T00:35:08;9.94;;;8.98;;
1987;SDS011;12775;46.994;15.498;2023-03-23T00:37:35;10.58;;;9.46;;
1987;SDS011;12775;46.994;15.498;2023-03-23T00:40:02;10.70;;;8.94;;
1987;SDS011;12775;46.994;15.498;2023-03-23T00:42:32;11.20;;;10.14;;
1987;SDS011;12775;46.994;15.498;2023-03-23T00:45:00;11.60;;;9.84;;
1987;SDS011;12775;46.994;15.498;2023-03-23T00:47:27;12.24;;;10.14;;
1987;SDS011;12775;46.994;15.498;2023-03-23T00:49:56;10.34;;;8.58;;
1987;SDS011;12775;46.994;15.498;2023-03-23T00:52:23;10.22;;;9.10;;
1987;SDS011;12775;46.994;15.498;2023-03-23T00:54:50;9.72;;;8.42;;
1987;SDS011;12775;46.994;15.498;2023-03-23T00:57:18;9.72;;;8.72;;
1987;SDS011;12775;46.994;15.498;2023-03-23T00:59:45;9.78;;;8.54;;
1987;SDS011;12775;46.994;15.498;2023-03-23T01:02:12;12.68;;;8.94;;
1987;SDS011;12775;46.994;15.498;2023-03-23T01:04:40;10.12;;;9.10;;
1987;SDS011;12775;46.994;15.498;2023-03-23T01:07:07;9.80;;;8.12;;
1987;SDS011;12775;46.994;15.498;2023-03-23T01:09:34;9.28;;;8.24;;
1987;SDS011;12775;46.994;15.498;2023-03-23T01:12:03;8.82;;;7.92;;
1987;SDS011;12775;46.994;15.498;2023-03-23T01:14:31;10.10;;;8.80;;
1987;SDS011;12775;46.994;15.498;2023-03-23T01:16:58;10.08;;;9.08;;
1987;SDS011;12775;46.994;15.498;2023-03-23T01:19:26;9.98;;;9.06;;
1987;SDS011;12775;46.994;15.498;2023-03-23T01:21:53;9.08;;;8.28;;
1987;SDS011;12775;46.994;15.498;2023-03-23T01:24:21;9.04;;;8.22;;
1987;SDS011;12775;46.994;15.498;2023-03-23T01:26:48;11.04;;;9.48;;
1987;SDS011;12775;46.994;15.498;2023-03-23T01:29:15;8.92;;;8.02;;
1987;SDS011;12775;46.994;15.498;2023-03-23T01:31:43;12.08;;;8.34;;
1987;SDS011;12775;46.994;15.498;2023-03-23T01:34:10;8.18;;;7.40;;
1987;SDS011;12775;46.994;15.498;2023-03-23T01:36:40;9.76;;;8.74;;
1987;SDS011;12775;46.994;15.498;2023-03-23T01:39:07;9.98;;;9.08;;
1987;SDS011;12775;46.994;15.498;2023-03-23T01:41:35;10.68;;;8.68;;
1987;SDS011;12775;46.994;15.498;2023-03-23T01:44:04;10.04;;;9.04;;
1987;SDS011;12775;46.994;15.498;2023-03-23T01:46:46;10.70;;;9.26;;
1987;SDS011;12775;46.994;15.498;2023-03-23T01:49:15;11.04;;;9.84;;
1987;SDS011;12775;46.994;15.498;2023-03-23T01:51:43;10.42;;;8.32;;
1987;SDS011;12775;46.994;15.498;2023-03-23T01:54:11;10.52;;;9.52;;
1987;SDS011;12775;46.994;15.498;2023-03-23T01:56:39;13.50;;;10.18;;
1987;SDS011;12775;46.994;15.498;2023-03-23T01:59:07;12.38;;;10.46;;
1987;SDS011;12775;46.994;15.498;2023-03-23T02:01:35;10.88;;;9.72;;
1987;SDS011;12775;46.994;15.498;2023-03-23T02:04:02;11.22;;;10.12;;
1987;SDS011;12775;46.994;15.498;2023-03-23T02:06:28;14.98;;;9.96;;
1987;SDS011;12775;46.994;15.498;2023-03-23T02:08:56;10.48;;;9.38;;
1987;SDS011;12775;46.994;15.498;2023-03-23T02:11:23;10.76;;;9.34;;
1987;SDS011;12775;46.994;15.498;2023-03-23T02:13:51;9.16;;;8.28;;
1987;SDS011;12775;46.994;15.498;2023-03-23T02:16:21;10.62;;;8.38;;
1987;SDS011;12775;46.994;15.498;2023-03-23T02:19:04;12.42;;;9.74;;
1987;SDS011;12775;46.994;15.498;2023-03-23T02:21:38;11.54;;;10.40;;
1987;SDS011;12775;46.994;15.498;2023-03-23T02:24:10;11.34;;;9.80;;
1987;SDS011;12775;46.994;15.498;2023-03-23T02:26:55;11.94;;;10.08;;
1987;SDS011;12775;46.994;15.498;2023-03-23T02:29:28;10.10;;;9.12;;
1987;SDS011;12775;46.994;15.498;2023-03-23T02:34:56;10.64;;;9.58;;
1987;SDS011;12775;46.994;15.498;2023-03-23T02:37:27;9.98;;;8.98;;
1987;SDS011;12775;46.994;15.498;2023-03-23T02:39:55;9.44;;;8.54;;
1987;SDS011;12775;46.994;15.498;2023-03-23T02:42:33;9.98;;;8.86;;
1987;SDS011;12775;46.994;15.498;2023-03-23T02:45:04;9.82;;;8.90;;
1987;SDS011;12775;46.994;15.498;2023-03-23T02:47:32;10.52;;;9.48;;
1987;SDS011;12775;46.994;15.498;2023-03-23T02:49:59;13.22;;;10.48;;
1987;SDS011;12775;46.994;15.498;2023-03-23T02:52:29;12.28;;;10.64;;
1987;SDS011;12775;46.994;15.498;2023-03-23T02:54:54;12.08;;;10.50;;
1987;SDS011;12775;46.994;15.498;2023-03-23T02:57:22;10.80;;;9.80;;
1987;SDS011;12775;46.994;15.498;2023-03-23T02:59:50;11.06;;;9.94;;
1987;SDS011;12775;46.994;15.498;2023-03-23T03:02:18;9.28;;;8.32;;
1987;SDS011;12775;46.994;15.498;2023-03-23T03:04:47;13.26;;;9.20;;
1987;SDS011;12775;46.994;15.498;2023-03-23T03:07:19;12.46;;;10.32;;
1987;SDS011;12775;46.994;15.498;2023-03-23T03:09:48;11.24;;;8.98;;
1987;SDS011;12775;46.994;15.498;2023-03-23T03:12:21;12.10;;;9.08;;
1987;SDS011;12775;46.994;15.498;2023-03-23T03:14:50;10.38;;;9.28;;
1987;SDS011;12775;46.994;15.498;2023-03-23T03:17:21;10.62;;;8.00;;
1987;SDS011;12775;46.994;15.498;2023-03-23T03:19:48;8.78;;;7.88;;
1987;SDS011;12775;46.994;15.498;2023-03-23T03:22:14;8.96;;;8.14;;
1987;SDS011;12775;46.994;15.498;2023-03-23T03:24:42;8.72;;;7.82;;
1987;SDS011;12775;46.994;15.498;2023-03-23T03:27:12;9.30;;;8.36;;
1987;SDS011;12775;46.994;15.498;2023-03-23T03:29:39;9.00;;;8.20;;
1987;SDS011;12775;46.994;15.498;2023-03-23T03:32:06;11.72;;;10.00;;
1987;SDS011;12775;46.994;15.498;2023-03-23T03:34:33;9.28;;;8.32;;
1987;SDS011;12775;46.994;15.498;2023-03-23T03:36:59;8.88;;;8.08;;
1987;SDS011;12775;46.994;15.498;2023-03-23T03:39:27;8.88;;;7.98;;
1987;SDS011;12775;46.994;15.498;2023-03-23T03:41:54;9.12;;;8.16;;
1987;SDS011;12775;46.994;15.498;2023-03-23T03:44:21;8.54;;;7.82;;
1987;SDS011;12775;46.994;15.498;2023-03-23T03:46:49;6.92;;;6.24;;
1987;SDS011;12775;46.994;15.498;2023-03-23T03:49:16;7.86;;;7.04;;
1987;SDS011;12775;46.994;15.498;2023-03-23T03:51:44;8.88;;;8.04;;
1987;SDS011;12775;46.994;15.498;2023-03-23T03:54:11;9.38;;;8.36;;
1987;SDS011;12775;46.994;15.498;2023-03-23T03:56:38;24.50;;;8.38;;
1987;SDS011;12775;46.994;15.498;2023-03-23T03:59:08;10.24;;;8.66;;
1987;SDS011;12775;46.994;15.498;2023-03-23T04:01:36;9.18;;;8.38;;
1987;SDS011;12775;46.994;15.498;2023-03-23T04:04:03;9.68;;;8.78;;
1987;SDS011;12775;46.994;15.498;2023-03-23T04:06:30;8.46;;;7.62;;
1987;SDS011;12775;46.994;15.498;2023-03-23T04:08:58;9.26;;;8.20;;
1987;SDS011;12775;46.994;15.498;2023-03-23T04:11:25;9.44;;;8.52;;
1987;SDS011;12775;46.994;15.498;2023-03-23T04:13:52;9.50;;;8.34;;
1987;SDS011;12775;46.994;15.498;2023-03-23T04:16:20;10.18;;;8.72;;
1987;SDS011;12775;46.994;15.498;2023-03-23T04:18:47;10.46;;;9.06;;
1987;SDS011;12775;46.994;15.498;2023-03-23T04:21:15;10.90;;;8.06;;
1987;SDS011;12775;46.994;15.498;2023-03-23T04:23:41;11.02;;;7.74;;
1987;SDS011;12775;46.994;15.498;2023-03-23T04:26:09;8.56;;;7.76;;
1987;SDS011;12775;46.994;15.498;2023-03-23T04:28:35;9.28;;;8.32;;
1987;SDS011;12775;46.994;15.498;2023-03-23T04:31:03;9.86;;;8.44;;
1987;SDS011;12775;46.994;15.498;2023-03-23T04:33:30;10.64;;;7.90;;
1987;SDS011;12775;46.994;15.498;2023-03-23T04:35:59;8.64;;;6.96;;
1987;SDS011;12775;46.994;15.498;2023-03-23T04:38:26;12.72;;;9.20;;
1987;SDS011;12775;46.994;15.498;2023-03-23T04:40:54;9.22;;;8.06;;
1987;SDS011;12775;46.994;15.498;2023-03-23T04:43:22;8.42;;;7.52;;
1987;SDS011;12775;46.994;15.498;2023-03-23T04:45:54;8.44;;;7.46;;
1987;SDS011;12775;46.994;15.498;2023-03-23T04:48:20;10.20;;;8.12;;
1987;SDS011;12775;46.994;15.498;2023-03-23T04:50:48;14.94;;;9.44;;
1987;SDS011;12775;46.994;15.498;2023-03-23T04:53:15;8.44;;;7.64;;
1987;SDS011;12775;46.994;15.498;2023-03-23T04:55:43;11.68;;;9.16;;
1987;SDS011;12775;46.994;15.498;2023-03-23T04:58:11;10.22;;;9.14;;
1987;SDS011;12775;46.994;15.498;2023-03-23T05:00:39;8.40;;;7.56;;
1987;SDS011;12775;46.994;15.498;2023-03-23T05:03:07;12.30;;;9.52;;
1987;SDS011;12775;46.994;15.498;2023-03-23T05:05:34;9.20;;;8.38;;
1987;SDS011;12775;46.994;15.498;2023-03-23T05:08:01;11.28;;;9.14;;
1987;SDS011;12775;46.994;15.498;2023-03-23T05:10:29;10.08;;;9.00;;
1987;SDS011;12775;46.994;15.498;2023-03-23T05:12:56;11.20;;;8.92;;
1987;SDS011;12775;46.994;15.498;2023-03-23T05:15:23;11.00;;;9.96;;
1987;SDS011;12775;46.994;15.498;2023-03-23T05:17:51;22.24;;;10.92;;
1987;SDS011;12775;46.994;15.498;2023-03-23T05:20:18;17.96;;;9.40;;
1987;SDS011;12775;46.994;15.498;2023-03-23T05:22:47;11.64;;;10.54;;
1987;SDS011;12775;46.994;15.498;2023-03-23T05:25:15;15.00;;;11.00;;
1987;SDS011;12775;46.994;15.498;2023-03-23T05:27:42;15.06;;;10.68;;
1987;SDS011;12775;46.994;15.498;2023-03-23T05:30:09;10.32;;;9.22;;
1987;SDS011;12775;46.994;15.498;2023-03-23T05:32:37;13.28;;;9.46;;
1987;SDS011;12775;46.994;15.498;2023-03-23T05:35:04;9.30;;;8.40;;
1987;SDS011;12775;46.994;15.498;2023-03-23T05:37:32;11.52;;;9.24;;
1987;SDS011;12775;46.994;15.498;2023-03-23T05:40:00;15.70;;;9.38;;
1987;SDS011;12775;46.994;15.498;2023-03-23T05:42:28;14.60;;;9.68;;
1987;SDS011;12775;46.994;15.498;2023-03-23T05:44:56;11.38;;;8.82;;
1987;SDS011;12775;46.994;15.498;2023-03-23T05:47:23;12.32;;;9.14;;
1987;SDS011;12775;46.994;15.498;2023-03-23T05:49:52;12.34;;;9.78;;
1987;SDS011;12775;46.994;15.498;2023-03-23T05:52:18;11.62;;;9.88;;
1987;SDS011;12775;46.994;15.498;2023-03-23T05:54:46;11.86;;;10.68;;
1987;SDS011;12775;46.994;15.498;2023-03-23T05:57:14;10.62;;;9.56;;
1987;SDS011;12775;46.994;15.498;2023-03-23T05:59:41;13.96;;;11.00;;
1987;SDS011;12775;46.994;15.498;2023-03-23T06:02:09;12.30;;;11.20;;
1987;SDS011;12775;46.994;15.498;2023-03-23T06:04:36;12.60;;;10.76;;
1987;SDS011;12775;46.994;15.498;2023-03-23T06:07:03;13.40;;;11.92;;
1987;SDS011;12775;46.994;15.498;2023-03-23T06:09:31;14.52;;;10.38;;
1987;SDS011;12775;46.994;15.498;2023-03-23T06:11:57;10.86;;;9.50;;
1987;SDS011;12775;46.994;15.498;2023-03-23T06:14:25;12.14;;;10.92;;
1987;SDS011;12775;46.994;15.498;2023-03-23T06:16:52;16.20;;;14.40;;
1987;SDS011;12775;46.994;15.498;2023-03-23T06:19:19;16.52;;;15.02;;
1987;SDS011;12775;46.994;15.498;2023-03-23T06:21:48;15.20;;;12.18;;
1987;SDS011;12775;46.994;15.498;2023-03-23T06:24:15;14.02;;;11.58;;
1987;SDS011;12775;46.994;15.498;2023-03-23T06:26:42;13.82;;;12.42;;
1987;SDS011;12775;46.994;15.498;2023-03-23T06:29:10;13.14;;;11.80;;
1987;SDS011;12775;46.994;15.498;2023-03-23T06:34:10;11.56;;;10.22;;
1987;SDS011;12775;46.994;15.498;2023-03-23T06:36:38;14.60;;;11.06;;
1987;SDS011;12775;46.994;15.498;2023-03-23T06:39:05;16.98;;;12.66;;
1987;SDS011;12775;46.994;15.498;2023-03-23T06:41:33;14.48;;;11.56;;
1987;SDS011;12775;46.994;15.498;2023-03-23T06:44:00;14.28;;;12.32;;
1987;SDS011;12775;46.994;15.498;2023-03-23T06:46:28;14.64;;;11.24;;
1987;SDS011;12775;46.994;15.498;2023-03-23T06:48:55;15.66;;;11.24;;
1987;SDS011;12775;46.994;15.498;2023-03-23T06:51:22;12.20;;;10.58;;
1987;SDS011;12775;46.994;15.498;2023-03-23T06:53:50;15.30;;;11.44;;
1987;SDS011;12775;46.994;15.498;2023-03-23T06:56:18;14.90;;;11.40;;
1987;SDS011;12775;46.994;15.498;2023-03-23T06:58:45;13.12;;;11.74;;
1987;SDS011;12775;46.994;15.498;2023-03-23T07:01:13;12.42;;;11.28;;
1987;SDS011;12775;46.994;15.498;2023-03-23T07:03:40;15.98;;;11.48;;
1987;SDS011;12775;46.994;15.498;2023-03-23T07:06:09;11.50;;;10.48;;
1987;SDS011;12775;46.994;15.498;2023-03-23T07:08:37;12.76;;;11.36;;
1987;SDS011;12775;46.994;15.498;2023-03-23T07:11:04;12.66;;;11.44;;
1987;SDS011;12775;46.994;15.498;2023-03-23T07:13:32;13.40;;;12.06;;
1987;SDS011;12775;46.994;15.498;2023-03-23T07:15:59;13.60;;;12.28;;
1987;SDS011;12775;46.994;15.498;2023-03-23T07:18:26;13.14;;;11.92;;
1987;SDS011;12775;46.994;15.498;2023-03-23T07:20:54;13.84;;;12.52;;
1987;SDS011;12775;46.994;15.498;2023-03-23T07:23:21;12.94;;;11.62;;
1987;SDS011;12775;46.994;15.498;2023-03-23T07:25:48;13.42;;;11.02;;
1987;SDS011;12775;46.994;15.498;2023-03-23T07:28:15;13.26;;;11.90;;
1987;SDS011;12775;46.994;15.498;2023-03-23T07:30:42;13.52;;;10.10;;
1987;SDS011;12775;46.994;15.498;2023-03-23T07:33:10;16.34;;;11.88;;
1987;SDS011;12775;46.994;15.498;2023-03-23T07:35:37;16.14;;;11.58;;
1987;SDS011;12775;46.994;15.498;2023-03-23T07:38:06;13.16;;;11.92;;
1987;SDS011;12775;46.994;15.498;2023-03-23T07:40:33;14.34;;;13.02;;
1987;SDS011;12775;46.994;15.498;2023-03-23T07:43:03;12.94;;;11.42;;
1987;SDS011;12775;46.994;15.498;2023-03-23T07:45:32;14.48;;;11.62;;
1987;SDS011;12775;46.994;15.498;2023-03-23T07:48:00;14.76;;;11.84;;
1987;SDS011;12775;46.994;15.498;2023-03-23T07:50:27;14.44;;;12.38;;
1987;SDS011;12775;46.994;15.498;2023-03-23T07:52:55;17.46;;;11.42;;
1987;SDS011;12775;46.994;15.498;2023-03-23T07:55:22;12.08;;;10.90;;
1987;SDS011;12775;46.994;15.498;2023-03-23T07:57:51;19.38;;;12.32;;
1987;SDS011;12775;46.994;15.498;2023-03-23T08:00:18;14.36;;;11.60;;
1987;SDS011;12775;46.994;15.498;2023-03-23T08:02:47;43.84;;;32.62;;
1987;SDS011;12775;46.994;15.498;2023-03-23T08:05:14;33.04;;;23.30;;
1987;SDS011;12775;46.994;15.498;2023-03-23T08:07:42;13.92;;;12.08;;
1987;SDS011;12775;46.994;15.498;2023-03-23T08:10:09;15.30;;;12.84;;
1987;SDS011;12775;46.994;15.498;2023-03-23T08:12:38;11.78;;;10.42;;
1987;SDS011;12775;46.994;15.498;2023-03-23T08:15:05;14.44;;;11.32;;
1987;SDS011;12775;46.994;15.498;2023-03-23T08:17:33;13.34;;;11.48;;
1987;SDS011;12775;46.994;15.498;2023-03-23T08:20:00;12.30;;;11.08;;
1987;SDS011;12775;46.994;15.498;2023-03-23T08:22:27;11.62;;;10.42;;
1987;SDS011;12775;46.994;15.498;2023-03-23T08:24:55;10.34;;;9.36;;
1987;SDS011;12775;46.994;15.498;2023-03-23T08:27:23;10.74;;;9.34;;
1987;SDS011;12775;46.994;15.498;2023-03-23T08:29:50;12.70;;;10.02;;
1987;SDS011;12775;46.994;15.498;2023-03-23T08:32:21;9.48;;;8.34;;
1987;SDS011;12775;46.994;15.498;2023-03-23T08:34:48;12.20;;;10.46;;
1987;SDS011;12775;46.994;15.498;2023-03-23T08:37:15;8.96;;;8.16;;
1987;SDS011;12775;46.994;15.498;2023-03-23T08:39:42;11.38;;;9.76;;
1987;SDS011;12775;46.994;15.498;2023-03-23T08:42:10;11.28;;;9.10;;
1987;SDS011;12775;46.994;15.498;2023-03-23T08:44:37;10.38;;;9.06;;
1987;SDS011;12775;46.994;15.498;2023-03-23T08:47:04;10.44;;;9.42;;
1987;SDS011;12775;46.994;15.498;2023-03-23T08:49:31;11.36;;;8.66;;
1987;SDS011;12775;46.994;15.498;2023-03-23T08:51:58;15.54;;;9.54;;
1987;SDS011;12775;46.994;15.498;2023-03-23T08:54:25;9.46;;;8.54;;
1987;SDS011;12775;46.994;15.498;2023-03-23T08:56:52;13.70;;;10.28;;
1987;SDS011;12775;46.994;15.498;2023-03-23T08:59:19;10.40;;;9.40;;
1987;SDS011;12775;46.994;15.498;2023-03-23T09:01:46;11.36;;;10.32;;
1987;SDS011;12775;46.994;15.498;2023-03-23T09:04:13;11.16;;;9.40;;
1987;SDS011;12775;46.994;15.498;2023-03-23T09:06:42;11.28;;;10.30;;
1987;SDS011;12775;46.994;15.498;2023-03-23T09:09:10;11.62;;;10.10;;
1987;SDS011;12775;46.994;15.498;2023-03-23T09:11:38;10.96;;;9.92;;
1987;SDS011;12775;46.994;15.498;2023-03-23T09:14:05;9.56;;;7.92;;
1987;SDS011;12775;46.994;15.498;2023-03-23T09:16:32;13.44;;;10.34;;
1987;SDS011;12775;46.994;15.498;2023-03-23T09:19:00;11.38;;;7.98;;
1987;SDS011;12775;46.994;15.498;2023-03-23T09:21:27;16.72;;;10.80;;
1987;SDS011;12775;46.994;15.498;2023-03-23T09:23:55;13.58;;;9.38;;
1987;SDS011;12775;46.994;15.498;2023-03-23T09:26:24;9.78;;;8.84;;
1987;SDS011;12775;46.994;15.498;2023-03-23T09:28:51;9.72;;;8.92;;
1987;SDS011;12775;46.994;15.498;2023-03-23T09:31:19;10.06;;;9.06;;
1987;SDS011;12775;46.994;15.498;2023-03-23T09:33:46;10.28;;;9.26;;
1987;SDS011;12775;46.994;15.498;2023-03-23T09:36:13;13.52;;;10.00;;
1987;SDS011;12775;46.994;15.498;2023-03-23T09:38:39;11.72;;;8.90;;
1987;SDS011;12775;46.994;15.498;2023-03-23T09:41:12;11.70;;;8.98;;
1987;SDS011;12775;46.994;15.498;2023-03-23T09:44:01;10.74;;;8.94;;
1987;SDS011;12775;46.994;15.498;2023-03-23T09:46:30;11.56;;;10.32;;
1987;SDS011;12775;46.994;15.498;2023-03-23T09:48:55;10.76;;;9.20;;
1987;SDS011;12775;46.994;15.498;2023-03-23T09:54:12;10.28;;;8.12;;
1987;SDS011;12775;46.994;15.498;2023-03-23T09:56:57;8.44;;;7.70;;
1987;SDS011;12775;46.994;15.498;2023-03-23T10:02:03;11.68;;;9.48;;
1987;SDS011;12775;46.994;15.498;2023-03-23T10:04:36;13.90;;;8.78;;
1987;SDS011;12775;46.994;15.498;2023-03-23T10:07:13;10.34;;;9.40;;
1987;SDS011;12775;46.994;15.498;2023-03-23T10:09:40;11.96;;;8.46;;
1987;SDS011;12775;46.994;15.498;2023-03-23T10:12:15;9.82;;;8.54;;
1987;SDS011;12775;46.994;15.498;2023-03-23T10:14:45;9.72;;;8.76;;
1987;SDS011;12775;46.994;15.498;2023-03-23T10:17:13;11.18;;;9.42;;
1987;SDS011;12775;46.994;15.498;2023-03-23T10:22:29;11.18;;;8.00;;
1987;SDS011;12775;46.994;15.498;2023-03-23T10:25:14;12.24;;;8.50;;
1987;SDS011;12775;46.994;15.498;2023-03-23T10:27:51;9.04;;;8.34;;
1987;SDS011;12775;46.994;15.498;2023-03-23T10:30:19;9.58;;;7.54;;
1987;SDS011;12775;46.994;15.498;2023-03-23T10:32:49;8.76;;;7.28;;
1987;SDS011;12775;46.994;15.498;2023-03-23T10:35:18;8.58;;;7.78;;
1987;SDS011;12775;46.994;15.498;2023-03-23T10:37:47;7.96;;;7.20;;
1987;SDS011;12775;46.994;15.498;2023-03-23T10:40:16;12.12;;;8.90;;
1987;SDS011;12775;46.994;15.498;2023-03-23T10:42:42;10.24;;;7.52;;
1987;SDS011;12775;46.994;15.498;2023-03-23T10:45:17;10.66;;;9.28;;
1987;SDS011;12775;46.994;15.498;2023-03-23T10:47:44;8.54;;;7.74;;
1987;SDS011;12775;46.994;15.498;2023-03-23T10:50:12;8.92;;;8.04;;
1987;SDS011;12775;46.994;15.498;2023-03-23T10:52:39;8.84;;;8.00;;
1987;SDS011;12775;46.994;15.498;2023-03-23T10:55:13;8.80;;;7.48;;
1987;SDS011;12775;46.994;15.498;2023-03-23T10:57:44;12.16;;;8.08;;
1987;SDS011;12775;46.994;15.498;2023-03-23T11:00:19;9.28;;;8.38;;
1987;SDS011;12775;46.994;15.498;2023-03-23T11:05:56;9.18;;;7.92;;
1987;SDS011;12775;46.994;15.498;2023-03-23T11:08:24;10.22;;;8.54;;
1987;SDS011;12775;46.994;15.498;2023-03-23T11:10:53;7.98;;;7.30;;
1987;SDS011;12775;46.994;15.498;2023-03-23T11:13:21;8.14;;;7.44;;
1987;SDS011;12775;46.994;15.498;2023-03-23T11:15:48;6.54;;;5.94;;
1987;SDS011;12775;46.994;15.498;2023-03-23T11:18:19;12.98;;;7.66;;
1987;SDS011;12775;46.994;15.498;2023-03-23T11:20:47;9.04;;;7.40;;
1987;SDS011;12775;46.994;15.498;2023-03-23T11:23:21;6.94;;;6.32;;
1987;SDS011;12775;46.994;15.498;2023-03-23T11:28:25;8.78;;;7.02;;
1987;SDS011;12775;46.994;15.498;2023-03-23T11:30:50;12.36;;;7.30;;
1987;SDS011;12775;46.994;15.498;2023-03-23T11:33:17;7.92;;;7.18;;
1987;SDS011;12775;46.994;15.498;2023-03-23T11:35:44;7.62;;;7.02;;
1987;SDS011;12775;46.994;15.498;2023-03-23T11:38:16;8.20;;;6.64;;
1987;SDS011;12775;46.994;15.498;2023-03-23T11:40:44;10.02;;;6.94;;
1987;SDS011;12775;46.994;15.498;2023-03-23T11:43:13;10.14;;;6.54;;
1987;SDS011;12775;46.994;15.498;2023-03-23T11:45:40;10.44;;;6.98;;
1987;SDS011;12775;46.994;15.498;2023-03-23T11:48:11;6.54;;;5.94;;
1987;SDS011;12775;46.994;15.498;2023-03-23T11:50:50;9.00;;;6.24;;
1987;SDS011;12775;46.994;15.498;2023-03-23T11:53:23;8.52;;;7.30;;
1987;SDS011;12775;46.994;15.498;2023-03-23T11:55:56;8.60;;;7.78;;
1987;SDS011;12775;46.994;15.498;2023-03-23T11:58:21;7.66;;;6.94;;
1987;SDS011;12775;46.994;15.498;2023-03-23T12:00:58;11.58;;;6.92;;
1987;SDS011;12775;46.994;15.498;2023-03-23T12:03:41;12.14;;;7.60;;
1987;SDS011;12775;46.994;15.498;2023-03-23T12:06:05;10.28;;;7.10;;
1987;SDS011;12775;46.994;15.498;2023-03-23T12:09:08;11.66;;;7.26;;
1987;SDS011;12775;46.994;15.498;2023-03-23T12:11:58;8.86;;;8.06;;
1987;SDS011;12775;46.994;15.498;2023-03-23T12:16:53;8.60;;;7.80;;
1987;SDS011;12775;46.994;15.498;2023-03-23T12:19:21;8.38;;;7.20;;
1987;SDS011;12775;46.994;15.498;2023-03-23T12:21:55;8.52;;;7.70;;
1987;SDS011;12775;46.994;15.498;2023-03-23T12:24:26;9.08;;;8.06;;
1987;SDS011;12775;46.994;15.498;2023-03-23T12:26:58;11.56;;;7.90;;
1987;SDS011;12775;46.994;15.498;2023-03-23T12:32:13;8.94;;;6.88;;
1987;SDS011;12775;46.994;15.498;2023-03-23T12:34:40;7.68;;;6.98;;
1987;SDS011;12775;46.994;15.498;2023-03-23T12:37:15;7.32;;;6.72;;
1987;SDS011;12775;46.994;15.498;2023-03-23T12:39:51;9.70;;;7.56;;
1987;SDS011;12775;46.994;15.498;2023-03-23T12:42:41;8.22;;;7.42;;
1987;SDS011;12775;46.994;15.498;2023-03-23T12:48:05;7.72;;;6.86;;
1987;SDS011;12775;46.994;15.498;2023-03-23T12:50:35;8.82;;;8.02;;
1987;SDS011;12775;46.994;15.498;2023-03-23T12:53:04;7.28;;;6.58;;
1987;SDS011;12775;46.994;15.498;2023-03-23T12:55:35;9.14;;;8.34;;
1987;SDS011;12775;46.994;15.498;2023-03-23T12:58:20;8.30;;;7.48;;
1987;SDS011;12775;46.994;15.498;2023-03-23T13:00:50;12.78;;;8.60;;
1987;SDS011;12775;46.994;15.498;2023-03-23T13:06:12;8.74;;;7.94;;
1987;SDS011;12775;46.994;15.498;2023-03-23T13:08:44;11.74;;;9.30;;
1987;SDS011;12775;46.994;15.498;2023-03-23T13:11:13;15.80;;;9.96;;
1987;SDS011;12775;46.994;15.498;2023-03-23T13:13:44;13.94;;;8.16;;
1987;SDS011;12775;46.994;15.498;2023-03-23T13:16:20;8.46;;;7.48;;
1987;SDS011;12775;46.994;15.498;2023-03-23T13:19:05;10.66;;;7.48;;
1987;SDS011;12775;46.994;15.498;2023-03-23T13:21:41;8.98;;;8.08;;
1987;SDS011;12775;46.994;15.498;2023-03-23T13:24:09;9.28;;;8.48;;
1987;SDS011;12775;46.994;15.498;2023-03-23T13:26:38;8.80;;;7.54;;
1987;SDS011;12775;46.994;15.498;2023-03-23T13:29:08;8.74;;;6.32;;
1987;SDS011;12775;46.994;15.498;2023-03-23T13:31:33;10.00;;;6.86;;
1987;SDS011;12775;46.994;15.498;2023-03-23T13:34:02;10.62;;;8.12;;
1987;SDS011;12775;46.994;15.498;2023-03-23T13:36:44;9.56;;;6.90;;
1987;SDS011;12775;46.994;15.498;2023-03-23T13:39:18;7.90;;;7.10;;
1987;SDS011;12775;46.994;15.498;2023-03-23T13:41:48;7.88;;;7.10;;
1987;SDS011;12775;46.994;15.498;2023-03-23T13:44:17;7.08;;;6.40;;
1987;SDS011;12775;46.994;15.498;2023-03-23T13:46:53;8.50;;;6.02;;
1987;SDS011;12775;46.994;15.498;2023-03-23T13:49:16;6.50;;;5.48;;
1987;SDS011;12775;46.994;15.498;2023-03-23T13:51:47;7.78;;;6.12;;
1987;SDS011;12775;46.994;15.498;2023-03-23T13:54:19;7.18;;;5.80;;
1987;SDS011;12775;46.994;15.498;2023-03-23T13:56:43;6.20;;;5.56;;
1987;SDS011;12775;46.994;15.498;2023-03-23T13:59:13;6.66;;;6.06;;
1987;SDS011;12775;46.994;15.498;2023-03-23T14:01:40;6.56;;;5.96;;
1987;SDS011;12775;46.994;15.498;2023-03-23T14:04:14;6.96;;;6.26;;
1987;SDS011;12775;46.994;15.498;2023-03-23T14:06:39;13.02;;;6.32;;
1987;SDS011;12775;46.994;15.498;2023-03-23T14:09:12;6.00;;;5.40;;
1987;SDS011;12775;46.994;15.498;2023-03-23T14:11:34;6.22;;;5.38;;
1987;SDS011;12775;46.994;15.498;2023-03-23T14:14:03;8.70;;;6.62;;
1987;SDS011;12775;46.994;15.498;2023-03-23T14:16:36;7.02;;;5.80;;
1987;SDS011;12775;46.994;15.498;2023-03-23T14:19:04;9.42;;;6.42;;
1987;SDS011;12775;46.994;15.498;2023-03-23T14:21:33;6.16;;;5.56;;
1987;SDS011;12775;46.994;15.498;2023-03-23T14:24:06;6.60;;;5.62;;
1987;SDS011;12775;46.994;15.498;2023-03-23T14:26:33;5.74;;;5.24;;
1987;SDS011;12775;46.994;15.498;2023-03-23T14:29:00;6.20;;;5.10;;
1987;SDS011;12775;46.994;15.498;2023-03-23T14:31:27;5.80;;;5.30;;
1987;SDS011;12775;46.994;15.498;2023-03-23T14:33:56;6.24;;;4.92;;
1987;SDS011;12775;46.994;15.498;2023-03-23T14:36:24;5.96;;;5.46;;
1987;SDS011;12775;46.994;15.498;2023-03-23T14:41:27;5.76;;;5.20;;
1987;SDS011;12775;46.994;15.498;2023-03-23T14:43:53;7.12;;;4.66;;
1987;SDS011;12775;46.994;15.498;2023-03-23T14:46:20;5.36;;;4.92;;
1987;SDS011;12775;46.994;15.498;2023-03-23T14:48:46;5.56;;;4.84;;
1987;SDS011;12775;46.994;15.498;2023-03-23T14:51:17;6.12;;;5.12;;
1987;SDS011;12775;46.994;15.498;2023-03-23T14:53:41;7.32;;;6.14;;
1987;SDS011;12775;46.994;15.498;2023-03-23T14:56:10;6.52;;;5.72;;
1987;SDS011;12775;46.994;15.498;2023-03-23T14:58:36;5.74;;;5.20;;
1987;SDS011;12775;46.994;15.498;2023-03-23T15:01:06;6.96;;;6.30;;
1987;SDS011;12775;46.994;15.498;2023-03-23T15:03:35;6.30;;;4.78;;
1987;SDS011;12775;46.994;15.498;2023-03-23T15:06:00;7.44;;;5.28;;
1987;SDS011;12775;46.994;15.498;2023-03-23T15:08:28;5.40;;;4.92;;
1987;SDS011;12775;46.994;15.498;2023-03-23T15:11:03;6.26;;;5.76;;
1987;SDS011;12775;46.994;15.498;2023-03-23T15:13:28;9.24;;;5.68;;
1987;SDS011;12775;46.994;15.498;2023-03-23T15:16:04;6.26;;;5.76;;
1987;SDS011;12775;46.994;15.498;2023-03-23T15:18:35;6.82;;;5.44;;
1987;SDS011;12775;46.994;15.498;2023-03-23T15:21:08;10.20;;;5.08;;